createdAt,value
2018-03-03T00:01:03.383Z,-8.24
2018-03-03T00:03:32.061Z,-8.40
2018-03-03T00:06:00.736Z,-8.34
2018-03-03T00:08:29.614Z,-8.53
2018-03-03T00:10:58.242Z,-8.41
2018-03-03T00:13:29.834Z,-8.51
2018-03-03T00:15:59.796Z,-8.51
2018-03-03T00:18:31.311Z,-8.55
2018-03-03T00:21:01.497Z,-8.58
2018-03-03T00:23:31.989Z,-8.46
2018-03-03T00:26:01.938Z,-8.50
2018-03-03T00:28:32.465Z,-8.55
2018-03-03T00:31:04.347Z,-8.38
2018-03-03T00:33:33.685Z,-8.61
2018-03-03T00:36:04.035Z,-8.34
2018-03-03T00:38:34.088Z,-8.62
2018-03-03T00:41:09.576Z,-8.55
2018-03-03T00:43:38.600Z,-8.38
2018-03-03T00:46:08.395Z,-8.29
2018-03-03T00:48:37.676Z,-8.59
2018-03-03T00:51:07.798Z,-8.71
2018-03-03T00:53:36.987Z,-8.62
2018-03-03T00:56:05.622Z,-8.52
2018-03-03T00:58:34.182Z,-8.62
2018-03-03T01:01:02.877Z,-8.74
2018-03-03T01:03:31.317Z,-8.63
2018-03-03T01:06:00.068Z,-8.91
2018-03-03T01:08:28.565Z,-8.80
2018-03-03T01:10:58.102Z,-8.81
2018-03-03T01:13:27.498Z,-8.85
2018-03-03T01:15:56.377Z,-8.91
2018-03-03T01:18:25.069Z,-8.83
2018-03-03T01:20:53.899Z,-8.83
2018-03-03T01:23:22.505Z,-8.94
2018-03-03T01:25:51.438Z,-8.90
2018-03-03T01:28:20.959Z,-8.90
2018-03-03T01:30:49.830Z,-8.86
2018-03-03T01:33:19.271Z,-8.82
2018-03-03T01:35:48.005Z,-9.02
2018-03-03T01:38:16.812Z,-8.95
2018-03-03T01:40:45.323Z,-8.89
2018-03-03T01:43:14.023Z,-8.85
2018-03-03T01:45:43.144Z,-8.81
2018-03-03T01:48:11.794Z,-8.91
2018-03-03T01:50:40.282Z,-9.17
2018-03-03T01:53:09.033Z,-9.08
2018-03-03T01:55:37.662Z,-8.98
2018-03-03T01:58:06.349Z,-9.06
2018-03-03T02:00:34.827Z,-9.08
2018-03-03T02:03:03.487Z,-9.23
2018-03-03T02:05:32.181Z,-9.09
2018-03-03T02:08:00.741Z,-8.95
2018-03-03T02:10:29.457Z,-8.98
2018-03-03T02:12:58.883Z,-9.11
2018-03-03T02:15:27.367Z,-9.22
2018-03-03T02:17:55.857Z,-9.14
2018-03-03T02:20:24.498Z,-9.26
2018-03-03T02:22:53.075Z,-9.17
2018-03-03T02:25:21.698Z,-9.29
2018-03-03T02:27:50.153Z,-9.21
2018-03-03T02:30:18.679Z,-9.25
2018-03-03T02:32:47.148Z,-9.39
2018-03-03T02:35:15.604Z,-9.43
2018-03-03T02:37:44.267Z,-9.34
2018-03-03T02:40:12.837Z,-9.30
2018-03-03T02:42:41.431Z,-9.42
2018-03-03T02:45:09.910Z,-9.25
2018-03-03T02:47:38.360Z,-9.44
2018-03-03T02:50:06.920Z,-9.45
2018-03-03T02:52:35.406Z,-9.36
2018-03-03T02:55:04.105Z,-9.31
2018-03-03T02:57:32.517Z,-9.26
2018-03-03T03:00:01.190Z,-9.50
2018-03-03T03:02:29.675Z,-9.34
2018-03-03T03:04:58.159Z,-9.55
2018-03-03T03:07:26.894Z,-9.59
2018-03-03T03:09:55.617Z,-9.42
2018-03-03T03:12:24.228Z,-9.60
2018-03-03T03:14:52.696Z,-9.57
2018-03-03T03:17:21.187Z,-9.67
2018-03-03T03:19:49.631Z,-9.59
2018-03-03T03:22:18.125Z,-9.59
2018-03-03T03:24:46.847Z,-9.69
2018-03-03T03:27:15.572Z,-9.62
2018-03-03T03:29:44.281Z,-9.53
2018-03-03T03:32:13.147Z,-9.67
2018-03-03T03:34:41.699Z,-9.63
2018-03-03T03:37:10.170Z,-9.70
2018-03-03T03:39:38.814Z,-9.71
2018-03-03T03:42:07.459Z,-9.84
2018-03-03T03:44:36.103Z,-9.66
2018-03-03T03:47:05.003Z,-9.72
2018-03-03T03:49:33.698Z,-9.84
2018-03-03T03:52:02.593Z,-9.84
2018-03-03T03:54:31.430Z,-9.88
2018-03-03T03:56:59.962Z,-9.94
2018-03-03T03:59:28.450Z,-9.90
2018-03-03T04:01:57.132Z,-9.80
2018-03-03T04:04:25.785Z,-10.09
2018-03-03T04:06:54.515Z,-10.06
2018-03-03T04:09:23.056Z,-10.03
2018-03-03T04:11:51.802Z,-10.16
2018-03-03T04:14:20.303Z,-10.25
2018-03-03T04:16:48.767Z,-10.24
2018-03-03T04:19:17.347Z,-10.28
2018-03-03T04:21:45.844Z,-10.26
2018-03-03T04:24:14.544Z,-10.08
2018-03-03T04:26:43.218Z,-10.07
2018-03-03T04:29:12.072Z,-9.95
2018-03-03T04:31:40.615Z,-10.08
2018-03-03T04:34:09.056Z,-10.12
2018-03-03T04:36:38.003Z,-10.26
2018-03-03T04:39:06.519Z,-10.33
2018-03-03T04:41:35.147Z,-10.33
2018-03-03T04:44:03.696Z,-10.25
2018-03-03T04:46:32.685Z,-10.23
2018-03-03T04:49:01.358Z,-10.25
2018-03-03T04:51:29.882Z,-10.26
2018-03-03T04:53:58.582Z,-10.36
2018-03-03T04:56:27.184Z,-10.31
2018-03-03T04:58:56.066Z,-10.32
2018-03-03T05:04:20.336Z,-10.42
2018-03-03T05:06:49.647Z,-10.16
2018-03-03T05:09:18.455Z,-10.37
2018-03-03T05:11:47.613Z,-10.46
2018-03-03T05:14:16.721Z,-10.44
2018-03-03T05:16:45.717Z,-10.28
2018-03-03T05:19:15.639Z,-10.32
2018-03-03T05:21:47.473Z,-10.34
2018-03-03T05:24:16.693Z,-10.28
2018-03-03T05:26:46.027Z,-10.42
2018-03-03T05:29:15.634Z,-10.24
2018-03-03T05:31:44.817Z,-10.33
2018-03-03T05:34:14.616Z,-10.44
2018-03-03T05:36:43.905Z,-10.50
2018-03-03T05:39:14.318Z,-10.54
2018-03-03T05:41:43.230Z,-10.48
2018-03-03T05:44:12.591Z,-10.58
2018-03-03T05:46:42.336Z,-10.46
2018-03-03T05:49:11.377Z,-10.51
2018-03-03T05:51:40.433Z,-10.64
2018-03-03T05:54:09.162Z,-10.54
2018-03-03T05:56:38.287Z,-10.65
2018-03-03T05:59:07.511Z,-10.51
2018-03-03T06:01:36.338Z,-10.58
2018-03-03T06:04:05.140Z,-10.64
2018-03-03T06:06:34.478Z,-10.55
2018-03-03T06:09:03.570Z,-10.51
2018-03-03T06:11:32.492Z,-10.63
2018-03-03T06:14:01.623Z,-10.53
2018-03-03T06:16:30.397Z,-10.36
2018-03-03T06:18:59.241Z,-10.33
2018-03-03T06:21:28.011Z,-10.65
2018-03-03T06:23:56.833Z,-10.58
2018-03-03T06:26:25.535Z,-10.50
2018-03-03T06:28:55.263Z,-10.35
2018-03-03T06:31:24.196Z,-10.33
2018-03-03T06:33:53.221Z,-10.44
2018-03-03T06:36:22.188Z,-10.03
2018-03-03T06:38:51.036Z,-10.04
2018-03-03T06:41:19.947Z,-9.91
2018-03-03T06:43:48.854Z,-10.09
2018-03-03T06:46:17.820Z,-9.98
2018-03-03T06:48:46.720Z,-10.10
2018-03-03T06:51:16.070Z,-10.07
2018-03-03T06:53:45.043Z,-9.88
2018-03-03T06:56:14.130Z,-9.86
2018-03-03T06:58:43.216Z,-9.92
2018-03-03T07:01:12.321Z,-9.98
2018-03-03T07:03:41.199Z,-9.84
2018-03-03T07:06:10.127Z,-9.82
2018-03-03T07:08:39.182Z,-9.75
2018-03-03T07:11:08.286Z,-9.51
2018-03-03T07:13:37.227Z,-9.72
2018-03-03T07:16:06.471Z,-9.61
2018-03-03T07:18:35.237Z,-9.42
2018-03-03T07:21:04.107Z,-9.37
2018-03-03T07:23:32.834Z,-9.36
2018-03-03T07:26:01.986Z,-9.44
2018-03-03T07:28:31.137Z,-9.10
2018-03-03T07:31:00.029Z,-9.08
2018-03-03T07:33:28.913Z,-8.79
2018-03-03T07:35:57.814Z,-9.05
2018-03-03T07:38:26.720Z,-8.80
2018-03-03T07:40:55.585Z,-8.62
2018-03-03T07:43:24.557Z,-8.67
2018-03-03T07:45:53.774Z,-8.79
2018-03-03T07:48:22.866Z,-8.41
2018-03-03T07:50:51.618Z,-8.41
2018-03-03T07:53:20.678Z,-8.35
2018-03-03T07:55:49.572Z,-7.95
2018-03-03T07:58:27.462Z,-8.40
2018-03-03T08:00:56.277Z,-8.39
2018-03-03T08:03:25.421Z,-7.95
2018-03-03T08:05:54.581Z,-7.80
2018-03-03T08:08:23.492Z,-7.94
2018-03-03T08:10:52.308Z,-7.88
2018-03-03T08:13:20.962Z,-7.99
2018-03-03T08:15:50.294Z,-7.27
2018-03-03T08:18:19.117Z,-7.01
2018-03-03T08:20:48.281Z,-6.98
2018-03-03T08:23:17.942Z,-7.30
2018-03-03T08:25:46.876Z,-6.98
2018-03-03T08:28:15.767Z,-6.78
2018-03-03T08:30:45.488Z,-6.90
2018-03-03T08:33:14.245Z,-6.85
2018-03-03T08:35:43.054Z,-6.63
2018-03-03T08:38:11.948Z,-7.09
2018-03-03T08:40:40.870Z,-6.54
2018-03-03T08:43:10.020Z,-6.36
2018-03-03T08:45:39.227Z,-6.67
2018-03-03T08:48:08.114Z,-6.46
2018-03-03T08:50:37.204Z,-6.09
2018-03-03T08:53:07.122Z,-6.06
2018-03-03T08:55:36.168Z,-6.12
2018-03-03T08:58:07.117Z,-6.04
2018-03-03T09:00:36.865Z,-5.78
2018-03-03T09:03:08.511Z,-5.32
2018-03-03T09:05:40.274Z,-5.79
2018-03-03T09:08:09.165Z,-5.91
2018-03-03T09:10:39.562Z,-5.84
2018-03-03T09:13:10.173Z,-5.45
2018-03-03T09:15:39.211Z,-5.52
2018-03-03T09:18:08.012Z,-5.46
2018-03-03T09:20:37.330Z,-5.78
2018-03-03T09:23:06.804Z,-5.28
2018-03-03T09:25:35.662Z,-5.06
2018-03-03T09:28:04.593Z,-5.49
2018-03-03T09:30:33.898Z,-4.90
2018-03-03T09:33:03.082Z,-5.21
2018-03-03T09:35:31.956Z,-4.99
2018-03-03T09:38:00.980Z,-5.16
2018-03-03T09:40:30.463Z,-4.83
2018-03-03T09:42:59.725Z,-4.80
2018-03-03T09:45:29.526Z,-4.84
2018-03-03T09:47:58.981Z,-4.94
2018-03-03T09:50:28.299Z,-4.55
2018-03-03T09:52:57.712Z,-4.65
2018-03-03T09:55:26.906Z,-4.39
2018-03-03T09:57:56.827Z,-4.30
2018-03-03T10:00:25.786Z,-4.75
2018-03-03T10:02:54.537Z,-4.27
2018-03-03T10:05:23.686Z,-4.20
2018-03-03T10:07:52.835Z,-4.13
2018-03-03T10:10:21.888Z,-3.83
2018-03-03T10:12:51.184Z,-4.18
2018-03-03T10:15:20.473Z,-3.86
2018-03-03T10:17:49.374Z,-3.26
2018-03-03T10:20:18.675Z,-3.64
2018-03-03T10:22:48.579Z,-3.20
2018-03-03T10:25:17.861Z,-3.10
2018-03-03T10:27:46.983Z,-2.71
2018-03-03T10:30:16.071Z,-2.77
2018-03-03T10:32:44.999Z,-3.32
2018-03-03T10:35:14.327Z,-3.24
2018-03-03T10:37:44.186Z,-2.47
2018-03-03T10:40:13.696Z,-2.93
2018-03-03T10:42:42.601Z,-3.11
2018-03-03T10:45:12.084Z,-2.60
2018-03-03T10:47:41.227Z,-2.22
2018-03-03T10:50:10.719Z,-2.28
2018-03-03T10:52:39.576Z,-1.71
2018-03-03T10:55:08.831Z,-1.67
2018-03-03T10:57:37.664Z,-1.24
2018-03-03T11:00:07.365Z,-2.13
2018-03-03T11:02:37.393Z,-1.48
2018-03-03T11:05:06.334Z,-1.42
2018-03-03T11:07:35.228Z,-0.89
2018-03-03T11:10:04.697Z,-1.07
2018-03-03T11:12:35.954Z,-0.87
2018-03-03T11:15:05.545Z,-1.07
2018-03-03T11:17:35.240Z,-1.33
2018-03-03T11:20:05.839Z,-2.18
2018-03-03T11:22:34.865Z,-0.74
2018-03-03T11:25:04.981Z,-0.30
2018-03-03T11:27:34.572Z,-0.05
2018-03-03T11:30:03.315Z,-0.31
2018-03-03T11:32:32.882Z,0.31
2018-03-03T11:35:01.767Z,2.55
2018-03-03T11:37:30.971Z,3.07
2018-03-03T11:39:59.969Z,2.05
2018-03-03T11:42:29.876Z,2.84
2018-03-03T11:44:59.097Z,3.42
2018-03-03T11:47:28.073Z,2.82
2018-03-03T11:49:56.956Z,1.71
2018-03-03T11:52:26.246Z,2.09
2018-03-03T11:54:55.372Z,1.40
2018-03-03T11:57:24.440Z,0.55
2018-03-03T11:59:53.288Z,1.66
2018-03-03T12:02:22.393Z,1.27
2018-03-03T12:04:51.800Z,0.33
2018-03-03T12:07:20.819Z,0.15
2018-03-03T12:09:49.920Z,3.29
2018-03-03T12:12:18.802Z,2.31
2018-03-03T12:14:47.910Z,2.71
2018-03-03T12:17:17.642Z,2.24
2018-03-03T12:19:47.318Z,2.53
2018-03-03T12:22:16.449Z,3.69
2018-03-03T12:24:45.504Z,3.06
2018-03-03T12:27:15.223Z,1.58
2018-03-03T12:29:44.116Z,0.55
2018-03-03T12:32:12.983Z,-0.58
2018-03-03T12:34:41.908Z,-0.29
2018-03-03T12:37:12.389Z,-0.31
2018-03-03T12:39:41.273Z,0.23
2018-03-03T12:42:10.416Z,0.62
2018-03-03T12:44:39.081Z,2.14
2018-03-03T12:47:08.398Z,1.39
2018-03-03T12:49:38.288Z,3.05
2018-03-03T12:52:07.822Z,1.19
2018-03-03T12:54:38.817Z,-0.07
2018-03-03T12:57:08.914Z,-0.61
2018-03-03T12:59:37.759Z,0.09
2018-03-03T13:02:08.023Z,2.06
2018-03-03T13:04:37.394Z,0.98
2018-03-03T13:07:06.468Z,1.43
2018-03-03T13:09:39.891Z,0.67
2018-03-03T13:12:08.768Z,1.11
2018-03-03T13:14:38.272Z,1.26
2018-03-03T13:17:07.678Z,0.47
2018-03-03T13:19:37.981Z,2.18
2018-03-03T13:22:06.997Z,3.85
2018-03-03T13:24:36.381Z,4.70
2018-03-03T13:27:05.244Z,4.62
2018-03-03T13:29:34.277Z,2.91
2018-03-03T13:32:03.985Z,3.66
2018-03-03T13:34:32.766Z,7.30
2018-03-03T13:37:02.180Z,4.65
2018-03-03T13:39:31.645Z,5.91
2018-03-03T13:42:00.819Z,4.44
2018-03-03T13:44:29.724Z,5.27
2018-03-03T13:46:58.758Z,3.87
2018-03-03T13:49:27.658Z,4.49
2018-03-03T13:51:56.560Z,4.45
2018-03-03T13:54:25.800Z,3.09
2018-03-03T13:56:54.705Z,2.77
2018-03-03T13:59:25.114Z,-0.06
2018-03-03T14:01:54.163Z,0.34
2018-03-03T14:04:23.667Z,0.04
2018-03-03T14:06:52.901Z,-0.09
2018-03-03T14:09:22.265Z,-0.97
2018-03-03T14:11:51.420Z,-0.76
2018-03-03T14:14:20.296Z,-0.43
2018-03-03T14:16:49.403Z,-1.20
2018-03-03T14:19:18.894Z,-0.36
2018-03-03T14:21:47.940Z,-0.86
2018-03-03T14:24:17.023Z,-1.10
2018-03-03T14:26:47.161Z,-0.96
2018-03-03T14:29:16.855Z,-0.74
2018-03-03T14:31:46.182Z,-0.60
2018-03-03T14:34:14.960Z,-1.24
2018-03-03T14:36:49.593Z,-0.70
2018-03-03T14:39:24.303Z,-0.97
2018-03-03T14:41:53.440Z,-0.99
2018-03-03T14:44:22.489Z,-0.81
2018-03-03T14:46:52.405Z,-1.51
2018-03-03T14:49:22.732Z,-1.44
2018-03-03T14:51:52.039Z,-1.11
2018-03-03T14:54:20.714Z,-1.22
2018-03-03T14:56:49.998Z,-1.29
2018-03-03T14:59:19.113Z,-1.59
2018-03-03T15:01:48.431Z,-1.58
2018-03-03T15:04:17.310Z,-1.69
2018-03-03T15:06:46.196Z,-1.36
2018-03-03T15:09:15.091Z,-1.59
2018-03-03T15:11:44.040Z,-1.39
2018-03-03T15:14:13.503Z,-1.19
2018-03-03T15:16:42.479Z,-1.78
2018-03-03T15:19:11.612Z,-1.57
2018-03-03T15:21:41.006Z,-1.15
2018-03-03T15:24:09.792Z,-1.81
2018-03-03T15:26:38.708Z,-1.28
2018-03-03T15:29:08.448Z,-1.33
2018-03-03T15:31:37.390Z,-1.66
2018-03-03T15:34:06.247Z,-1.53
2018-03-03T15:36:35.069Z,-1.65
2018-03-03T15:39:04.335Z,-1.60
2018-03-03T15:41:36.811Z,-1.69
2018-03-03T15:44:05.702Z,-1.64
2018-03-03T15:46:35.411Z,-1.67
2018-03-03T15:49:04.509Z,-1.61
2018-03-03T15:51:34.422Z,-1.96
2018-03-03T15:54:03.657Z,-2.02
2018-03-03T15:56:32.964Z,-1.95
2018-03-03T15:59:02.086Z,-1.98
2018-03-03T16:01:31.026Z,-1.94
2018-03-03T16:04:00.090Z,-2.10
2018-03-03T16:06:28.910Z,-2.29
2018-03-03T16:08:58.057Z,-2.13
2018-03-03T16:11:27.534Z,-2.19
2018-03-03T16:13:56.886Z,-2.28
2018-03-03T16:16:25.986Z,-2.42
2018-03-03T16:18:55.080Z,-2.55
2018-03-03T16:21:24.586Z,-2.50
2018-03-03T16:23:53.723Z,-2.46
2018-03-03T16:26:22.570Z,-2.52
2018-03-03T16:28:51.862Z,-2.64
2018-03-03T16:31:21.034Z,-2.62
2018-03-03T16:33:50.266Z,-2.70
2018-03-03T16:36:19.373Z,-2.73
2018-03-03T16:38:48.868Z,-2.70
2018-03-03T16:41:18.794Z,-2.84
2018-03-03T16:43:47.664Z,-2.84
2018-03-03T16:46:16.767Z,-2.80
2018-03-03T16:48:45.446Z,-2.93
2018-03-03T16:51:14.654Z,-2.94
2018-03-03T16:53:43.658Z,-2.98
2018-03-03T16:56:12.688Z,-2.90
2018-03-03T16:58:42.172Z,-2.99
2018-03-03T17:01:11.115Z,-3.08
2018-03-03T17:03:40.974Z,-3.07
2018-03-03T17:06:10.850Z,-3.07
2018-03-03T17:08:42.003Z,-3.08
2018-03-03T17:11:12.527Z,-3.15
2018-03-03T17:13:41.525Z,-3.12
2018-03-03T17:16:10.729Z,-3.20
2018-03-03T17:18:39.875Z,-3.25
2018-03-03T17:21:08.730Z,-3.21
2018-03-03T17:23:38.002Z,-3.21
2018-03-03T17:26:06.889Z,-3.32
2018-03-03T17:28:36.197Z,-3.31
2018-03-03T17:31:05.666Z,-3.36
2018-03-03T17:33:34.590Z,-3.33
2018-03-03T17:36:03.893Z,-3.39
2018-03-03T17:38:33.798Z,-3.39
2018-03-03T17:41:03.516Z,-3.42
2018-03-03T17:43:32.611Z,-3.54
2018-03-03T17:46:01.898Z,-3.43
2018-03-03T17:48:31.204Z,-3.42
2018-03-03T17:51:00.521Z,-3.42
2018-03-03T17:53:29.410Z,-3.44
2018-03-03T17:55:58.657Z,-3.54
2018-03-03T17:58:27.924Z,-3.58
2018-03-03T18:00:57.535Z,-3.60
2018-03-03T18:03:27.203Z,-3.66
2018-03-03T18:05:56.313Z,-3.60
2018-03-03T18:08:25.612Z,-3.74
2018-03-03T18:10:56.207Z,-3.74
2018-03-03T18:13:32.213Z,-3.71
2018-03-03T18:16:01.403Z,-3.75
2018-03-03T18:18:31.244Z,-3.67
2018-03-03T18:21:00.202Z,-3.77
2018-03-03T18:23:30.619Z,-3.84
2018-03-03T18:26:00.493Z,-3.79
2018-03-03T18:28:36.487Z,-3.84
2018-03-03T18:31:05.568Z,-3.85
2018-03-03T18:33:35.048Z,-3.79
2018-03-03T18:36:04.046Z,-3.89
2018-03-03T18:38:35.416Z,-3.87
2018-03-03T18:41:04.792Z,-3.92
2018-03-03T18:43:34.523Z,-3.90
2018-03-03T18:46:04.513Z,-3.93
2018-03-03T18:48:33.632Z,-3.97
2018-03-03T18:51:02.759Z,-4.07
2018-03-03T18:53:32.788Z,-4.04
2018-03-03T18:56:02.958Z,-4.06
2018-03-03T18:58:38.133Z,-3.95
2018-03-03T19:01:08.501Z,-4.10
2018-03-03T19:03:40.043Z,-4.06
2018-03-03T19:06:09.059Z,-4.20
2018-03-03T19:08:45.063Z,-4.13
2018-03-03T19:11:15.184Z,-4.15
2018-03-03T19:13:43.873Z,-4.17
2018-03-03T19:16:13.048Z,-4.17
2018-03-03T19:18:41.855Z,-4.22
2018-03-03T19:21:10.747Z,-4.25
2018-03-03T19:23:39.794Z,-4.25
2018-03-03T19:26:08.732Z,-4.30
2018-03-03T19:28:37.602Z,-4.36
2018-03-03T19:31:06.637Z,-4.38
2018-03-03T19:33:36.126Z,-4.33
2018-03-03T19:36:05.120Z,-4.32
2018-03-03T19:38:34.299Z,-4.34
2018-03-03T19:41:03.452Z,-4.41
2018-03-03T19:43:32.705Z,-4.43
2018-03-03T19:46:01.595Z,-4.42
2018-03-03T19:48:30.511Z,-4.46
2018-03-03T19:50:59.379Z,-4.54
2018-03-03T19:53:29.114Z,-4.46
2018-03-03T19:55:58.148Z,-4.56
2018-03-03T19:58:27.392Z,-4.56
2018-03-03T20:00:56.362Z,-4.54
2018-03-03T20:03:27.524Z,-4.61
2018-03-03T20:05:56.843Z,-4.56
2018-03-03T20:08:25.598Z,-4.60
2018-03-03T20:10:54.389Z,-4.60
2018-03-03T20:13:23.283Z,-4.70
2018-03-03T20:15:52.594Z,-4.64
2018-03-03T20:18:21.636Z,-4.62
2018-03-03T20:20:50.568Z,-4.72
2018-03-03T20:23:19.334Z,-4.64
2018-03-03T20:25:48.303Z,-4.74
2018-03-03T20:28:17.620Z,-4.70
2018-03-03T20:30:47.567Z,-4.75
2018-03-03T20:33:18.136Z,-4.74
2018-03-03T20:35:46.982Z,-4.71
2018-03-03T20:38:15.746Z,-4.80
2018-03-03T20:40:45.381Z,-4.84
2018-03-03T20:43:14.462Z,-4.73
2018-03-03T20:45:45.157Z,-4.79
2018-03-03T20:48:14.527Z,-4.88
2018-03-03T20:50:43.606Z,-4.89
2018-03-03T20:53:12.616Z,-4.85
2018-03-03T20:55:42.414Z,-4.85
2018-03-03T20:58:12.300Z,-4.85
2018-03-03T21:00:42.099Z,-4.89
2018-03-03T21:03:11.340Z,-4.86
2018-03-03T21:05:40.853Z,-4.91
2018-03-03T21:08:10.002Z,-4.90
2018-03-03T21:10:39.263Z,-4.90
2018-03-03T21:13:08.488Z,-4.93
2018-03-03T21:15:38.640Z,-4.96
2018-03-03T21:18:08.071Z,-4.99
2018-03-03T21:20:38.105Z,-4.92
2018-03-03T21:23:07.258Z,-4.91
2018-03-03T21:25:36.152Z,-4.91
2018-03-03T21:28:04.994Z,-4.99
2018-03-03T21:30:34.145Z,-5.03
2018-03-03T21:33:04.263Z,-5.08
2018-03-03T21:35:33.225Z,-5.13
2018-03-03T21:38:01.979Z,-5.15
2018-03-03T21:40:31.118Z,-5.15
2018-03-03T21:43:00.438Z,-5.17
2018-03-03T21:45:29.595Z,-5.26
2018-03-03T21:47:58.408Z,-5.31
2018-03-03T21:50:27.511Z,-5.30
2018-03-03T21:52:56.614Z,-5.31
2018-03-03T21:55:25.446Z,-5.35
2018-03-03T21:57:54.387Z,-5.29
2018-03-03T22:00:23.234Z,-5.34
2018-03-03T22:02:52.222Z,-5.43
2018-03-03T22:05:21.026Z,-5.42
2018-03-03T22:07:50.379Z,-5.40
2018-03-03T22:10:19.456Z,-5.47
2018-03-03T22:12:48.763Z,-5.55
2018-03-03T22:15:17.583Z,-5.50
2018-03-03T22:17:46.746Z,-5.56
2018-03-03T22:20:15.714Z,-5.55
2018-03-03T22:22:44.524Z,-5.61
2018-03-03T22:25:13.895Z,-5.55
2018-03-03T22:27:42.710Z,-5.59
2018-03-03T22:30:11.519Z,-5.58
2018-03-03T22:32:40.402Z,-5.60
2018-03-03T22:35:09.399Z,-5.72
2018-03-03T22:37:38.323Z,-5.68
2018-03-03T22:40:07.584Z,-5.74
2018-03-03T22:42:36.265Z,-5.67
2018-03-03T22:45:05.363Z,-5.79
2018-03-03T22:47:34.445Z,-5.78
2018-03-03T22:50:03.594Z,-5.78
2018-03-03T22:52:33.054Z,-5.82
2018-03-03T22:55:02.357Z,-5.62
2018-03-03T22:57:31.222Z,-5.75
2018-03-03T23:00:00.186Z,-5.72
2018-03-03T23:02:29.225Z,-5.66
2018-03-03T23:04:58.042Z,-5.90
2018-03-03T23:07:27.422Z,-5.89
2018-03-03T23:09:56.367Z,-5.98
2018-03-03T23:12:25.589Z,-5.95
2018-03-03T23:14:54.274Z,-5.80
2018-03-03T23:17:23.178Z,-5.96
2018-03-03T23:19:52.296Z,-6.01
2018-03-03T23:22:21.172Z,-5.97
2018-03-03T23:24:50.055Z,-6.10
2018-03-03T23:27:18.945Z,-6.05
2018-03-03T23:29:47.629Z,-6.14
2018-03-03T23:32:16.451Z,-6.09
2018-03-03T23:34:45.847Z,-6.07
2018-03-03T23:37:14.722Z,-6.04
2018-03-03T23:39:44.996Z,-5.99
2018-03-03T23:42:14.223Z,-6.18
2018-03-03T23:44:43.021Z,-6.07
2018-03-03T23:47:11.858Z,-6.16
2018-03-03T23:49:40.814Z,-6.02
2018-03-03T23:52:10.228Z,-6.24
2018-03-03T23:54:39.211Z,-6.16
2018-03-03T23:57:08.409Z,-6.05
2018-03-03T23:59:37.399Z,-6.08
